Time,TemperatureF,DewpointF,PressureIn,WindDirection,WindDirectionDegrees,WindSpeedMPH,WindSpeedGustMPH,Humidity,HourlyPrecipIn,Conditions,Clouds,dailyrainin,SoftwareType,DateUTC
2013-06-22 10:12:00,84.0,78.0,-100.00,SW,235,9.0,17.0,80,0.00,,,-99.99,,2013-06-22 15:12:00,
2013-06-22 10:34:00,84.0,78.0,-100.00,West,265,7.0,17.0,81,0.00,,,-99.99,,2013-06-22 15:34:00,
2013-06-22 10:43:00,85.0,78.0,-100.00,WSW,240,6.0,16.0,80,0.00,,,-99.99,,2013-06-22 15:43:00,
2013-06-22 11:12:00,87.0,78.0,-100.00,South,190,9.0,17.0,75,0.00,,,-99.99,,2013-06-22 16:12:00,
2013-06-22 11:34:00,88.0,78.0,-100.00,SW,215,9.0,17.0,74,0.00,,,-99.99,,2013-06-22 16:34:00,
2013-06-22 11:43:00,87.0,77.0,-100.00,SW,230,11.0,17.0,73,0.00,,,-99.99,,2013-06-22 16:43:00,
2013-06-22 11:52:00,87.0,78.0,-100.00,SW,230,8.0,17.0,75,0.00,,,-99.99,,2013-06-22 16:52:00,
2013-06-22 12:11:00,88.0,79.0,-100.00,SSW,195,9.0,19.0,75,0.00,,,-99.99,,2013-06-22 17:11:00,
2013-06-22 12:34:00,90.0,79.0,-100.00,SW,215,6.0,12.0,70,0.00,,,-99.99,,2013-06-22 17:34:00,
2013-06-22 12:43:00,87.0,78.0,-100.00,SW,215,7.0,16.0,74,0.00,,,-99.99,,2013-06-22 17:43:00,
2013-06-22 13:12:00,87.0,80.0,-100.00,West,265,6.0,12.0,77,0.00,,,-99.99,,2013-06-22 18:12:00,
2013-06-22 13:34:00,90.0,80.0,-100.00,SW,215,7.0,10.0,71,0.00,,,-99.99,,2013-06-22 18:34:00,
2013-06-22 13:43:00,88.0,79.0,-100.00,WSW,245,9.0,14.0,73,0.00,,,-99.99,,2013-06-22 18:43:00,
2013-06-22 13:52:00,89.0,79.0,-100.00,SSW,200,10.0,16.0,73,0.00,,,-99.99,,2013-06-22 18:52:00,
2013-06-22 14:11:00,90.0,79.0,-100.00,South,180,13.0,20.0,71,0.00,,,-99.99,,2013-06-22 19:11:00,
2013-06-22 14:33:00,90.0,79.0,-100.00,South,185,14.0,24.0,70,0.00,,,-99.99,,2013-06-22 19:33:00,
2013-06-22 14:43:00,91.0,79.0,-100.00,SW,215,16.0,24.0,69,0.00,,,-99.99,,2013-06-22 19:43:00,
2013-06-22 15:11:00,90.0,79.0,-100.00,SW,215,12.0,21.0,69,0.00,,,-99.99,,2013-06-22 20:11:00,
2013-06-22 15:33:00,92.0,80.0,-100.00,SW,225,11.0,21.0,67,0.00,,,-99.99,,2013-06-22 20:33:00,
2013-06-22 15:43:00,92.0,81.0,-100.00,SSW,205,11.0,21.0,70,0.00,,,-99.99,,2013-06-22 20:43:00,
2013-06-22 16:11:00,92.0,79.0,-100.00,WSW,245,11.0,19.0,65,0.00,,,-99.99,,2013-06-22 21:11:00,
2013-06-22 16:34:00,91.0,78.0,-100.00,SW,225,14.0,21.0,66,0.00,,,-99.99,,2013-06-22 21:34:00,
2013-06-22 16:43:00,92.0,79.0,-100.00,SSW,205,11.0,19.0,66,0.00,,,-99.99,,2013-06-22 21:43:00,
2013-06-22 17:02:00,92.0,80.0,-100.00,South,185,12.0,17.0,68,0.00,,,-99.99,,2013-06-22 22:02:00,
2013-06-22 17:12:00,92.0,79.0,-100.00,SSW,210,8.0,17.0,65,0.00,,,-99.99,,2013-06-22 22:12:00,
2013-06-22 17:33:00,92.0,78.0,-100.00,SW,215,9.0,17.0,65,0.00,,,-99.99,,2013-06-22 22:33:00,
2013-06-22 17:43:00,92.0,79.0,-100.00,SSW,200,9.0,15.0,65,0.00,,,-99.99,,2013-06-22 22:43:00,
2013-06-22 17:52:00,92.0,79.0,-100.00,SSW,205,9.0,16.0,66,0.00,,,-99.99,,2013-06-22 22:52:00,
2013-06-22 18:34:00,91.0,79.0,-100.00,SSW,200,9.0,16.0,67,0.00,,,-99.99,,2013-06-22 23:34:00,
2013-06-22 18:43:00,90.0,78.0,-100.00,SSW,195,9.0,18.0,66,0.00,,,-99.99,,2013-06-22 23:43:00,
2013-06-22 19:33:00,89.0,79.0,-100.00,South,190,7.0,14.0,70,0.00,,,-99.99,,2013-06-23 00:33:00,
2013-06-22 19:42:00,89.0,79.0,-100.00,SSW,200,7.0,12.0,71,0.00,,,-99.99,,2013-06-23 00:42:00,
2013-06-22 20:11:00,88.0,79.0,-100.00,South,185,6.0,13.0,74,0.13,,,-99.99,,2013-06-23 01:11:00,
2013-06-22 20:32:00,87.0,79.0,-100.00,South,190,7.0,10.0,76,0.00,,,-99.99,,2013-06-23 01:32:00,
2013-06-22 20:42:00,87.0,79.0,-100.00,South,180,7.0,12.0,77,0.00,,,-99.99,,2013-06-23 01:42:00,
2013-06-22 21:01:00,86.0,79.0,-100.00,South,190,9.0,13.0,77,0.00,,,-99.99,,2013-06-23 02:01:00,
2013-06-22 21:11:00,85.0,78.0,-100.00,South,190,7.0,14.0,78,0.00,,,-99.99,,2013-06-23 02:11:00,
2013-06-22 21:31:00,85.0,78.0,-100.00,South,185,9.0,15.0,78,0.00,,,-99.99,,2013-06-23 02:31:00,
2013-06-22 21:41:00,85.0,78.0,-100.00,SSW,205,9.0,15.0,79,0.00,,,-99.99,,2013-06-23 02:41:00,
2013-06-22 22:01:00,84.0,78.0,-100.00,South,190,7.0,12.0,82,0.00,,,-99.99,,2013-06-23 03:01:00,
2013-06-22 22:21:00,83.0,78.0,-100.00,SSW,195,9.0,14.0,84,0.00,,,-99.99,,2013-06-23 03:21:00,
2013-06-22 22:31:00,83.0,78.0,-100.00,SSW,195,9.0,13.0,85,0.00,,,-99.99,,2013-06-23 03:31:00,
2013-06-22 22:41:00,83.0,78.0,-100.00,South,185,8.0,12.0,85,0.00,,,-99.99,,2013-06-23 03:41:00,
2013-06-22 23:01:00,83.0,79.0,-100.00,SSW,195,9.0,13.0,87,0.00,,,-99.99,,2013-06-23 04:01:00,
2013-06-22 23:11:00,83.0,79.0,-100.00,SSW,195,9.0,16.0,90,0.00,,,-99.99,,2013-06-23 04:11:00,
2013-06-22 23:31:00,82.0,79.0,-100.00,SSW,195,9.0,15.0,89,0.00,,,-99.99,,2013-06-23 04:31:00,
2013-06-22 23:42:00,82.0,78.0,-100.00,SSW,210,9.0,15.0,88,0.00,,,-99.99,,2013-06-23 04:42:00,